Time;durP1;ratioP1;P1;durP2;ratioP2;P2;SDS_P1;SDS_P2;PMS_P1;PMS_P2;Temp;Humidity;BMP_temperature;BMP_pressure;BME280_temperature;BME280_humidity;BME280_pressure;Samples;Min_cycle;Max_cycle;Signal;HPM_P1;HPM_P2
2021/04/30 00:09:06;;;;;;;47.60;27.48;;;;;;;11.01;100.00;99161.52;715343;1199;117599;-78
2021/04/30 00:24:27;;;;;;;48.90;28.30;;;;;;;10.82;100.00;99189.73;715486;1203;114405;-78
2021/04/30 00:39:47;;;;;;;49.13;27.45;;;;;;;10.64;100.00;99184.63;714679;1178;114299;-78
2021/04/30 00:55:11;;;;;;;45.10;25.73;;;;;;;10.48;100.00;99190.68;714898;1203;114139;-78
2021/04/30 01:10:32;;;;;;;86.03;33.80;;;;;;;10.29;100.00;99207.49;714775;1199;114326;-78
2021/04/30 01:25:52;;;;;;;42.05;25.68;;;;;;;10.05;100.00;99213.45;715158;1200;115097;-78
2021/04/30 01:41:13;;;;;;;40.28;23.35;;;;;;;9.81;100.00;99242.99;714500;1199;114689;-78
2021/04/30 01:56:34;;;;;;;32.85;18.90;;;;;;;9.58;100.00;99247.92;714984;1199;114668;-77
2021/04/30 02:11:54;;;;;;;32.53;18.17;;;;;;;9.38;100.00;99249.92;714826;1200;114830;-77
2021/04/30 02:27:14;;;;;;;26.15;15.48;;;;;;;9.08;100.00;99276.36;715089;1202;115042;-78
2021/04/30 02:42:35;;;;;;;24.43;14.73;;;;;;;8.79;100.00;99298.31;714752;1200;115693;-78
2021/04/30 02:58:00;;;;;;;28.65;15.10;;;;;;;8.66;100.00;99290.01;715186;1199;113783;-78
2021/04/30 03:13:21;;;;;;;28.55;15.98;;;;;;;8.53;100.00;99292.16;714717;1200;114022;-79
2021/04/30 03:28:41;;;;;;;22.05;12.95;;;;;;;8.40;100.00;99293.27;714699;1200;113880;-78
2021/04/30 03:44:02;;;;;;;20.78;12.78;;;;;;;8.31;100.00;99315.89;714516;1199;115210;-79
2021/04/30 03:59:22;;;;;;;20.68;11.70;;;;;;;8.30;100.00;99336.91;714334;1203;114825;-78
2021/04/30 04:14:44;;;;;;;27.60;15.98;;;;;;;8.34;100.00;99343.52;714731;1200;115317;-79
2021/04/30 04:30:08;;;;;;;29.90;16.33;;;;;;;8.54;100.00;99352.13;714349;1200;113829;-78
2021/04/30 04:45:28;;;;;;;22.13;14.13;;;;;;;8.73;100.00;99361.65;714397;1203;115083;-78
2021/04/30 05:01:30;;;;;;;23.02;14.98;;;;;;;9.07;100.00;99368.89;715956;1165;114417;31
2021/04/30 05:16:51;;;;;;;22.87;15.20;;;;;;;9.45;100.00;99382.67;710672;1200;114123;-79
2021/04/30 05:32:12;;;;;;;26.10;14.50;;;;;;;9.73;100.00;99393.05;710439;1204;114247;-77
2021/04/30 05:47:34;;;;;;;28.93;17.90;;;;;;;10.09;100.00;99405.27;711389;1181;115027;-79
2021/04/30 06:02:54;;;;;;;24.60;15.30;;;;;;;10.53;100.00;99414.89;712897;1202;115277;-79
2021/04/30 06:18:15;;;;;;;26.65;16.90;;;;;;;10.87;100.00;99448.98;712641;1203;114157;-80
2021/04/30 06:33:36;;;;;;;23.83;15.13;;;;;;;11.00;100.00;99456.42;712761;1205;114803;-81
2021/04/30 06:48:57;;;;;;;25.05;16.45;;;;;;;10.84;100.00;99487.85;712980;1203;114616;-80
2021/04/30 07:04:18;;;;;;;36.60;21.70;;;;;;;10.89;100.00;99506.58;712499;1203;114542;-81
2021/04/30 07:19:39;;;;;;;27.63;17.90;;;;;;;11.15;100.00;99522.25;712550;1203;115560;-83
2021/04/30 07:34:59;;;;;;;35.90;21.27;;;;;;;10.99;100.00;99538.75;712684;1203;115159;-83
2021/04/30 07:50:20;;;;;;;44.30;24.20;;;;;;;10.67;100.00;99563.81;712729;1203;114105;-74
2021/04/30 08:05:40;;;;;;;28.05;19.35;;;;;;;10.73;100.00;99571.08;712985;1203;115755;-74
2021/04/30 08:21:01;;;;;;;24.73;16.48;;;;;;;10.71;98.12;99582.70;712881;1206;115671;-74
2021/04/30 08:36:22;;;;;;;24.97;16.23;;;;;;;10.75;97.23;99603.22;713041;1177;113950;-74
2021/04/30 08:51:42;;;;;;;39.07;23.33;;;;;;;10.79;95.50;99615.05;712888;1202;115178;-77
2021/04/30 09:07:19;;;;;;;43.28;25.30;;;;;;;11.79;91.90;99632.98;721353;1183;114029;-78
2021/04/30 09:22:41;;;;;;;37.15;22.40;;;;;;;11.32;92.07;99622.92;723470;1181;115690;-78
2021/04/30 09:38:26;;;;;;;31.83;20.05;;;;;;;10.89;92.28;99649.08;712883;1202;114787;-79
2021/04/30 09:53:47;;;;;;;24.47;15.33;;;;;;;10.56;93.71;99668.98;713126;1203;115367;-79
2021/04/30 10:09:09;;;;;;;31.95;18.20;;;;;;;10.81;92.51;99678.70;712809;1203;115039;-78
2021/04/30 10:24:32;;;;;;;23.25;15.20;;;;;;;10.80;92.24;99678.86;713213;1180;113977;-78
2021/04/30 10:40:00;;;;;;;19.53;12.90;;;;;;;10.43;92.35;99708.69;713061;1203;114499;-79
2021/04/30 10:55:21;;;;;;;22.55;14.35;;;;;;;10.17;93.13;99735.56;712886;1202;114088;-79
2021/04/30 11:10:42;;;;;;;34.15;19.15;;;;;;;10.20;93.77;99753.63;712828;1206;114066;-76
2021/04/30 11:26:07;;;;;;;19.15;12.20;;;;;;;10.26;93.50;99766.14;712936;1202;114152;-77
2021/04/30 11:41:27;;;;;;;35.07;20.30;;;;;;;9.99;94.62;99770.41;712811;1202;115381;-80
2021/04/30 11:57:00;;;;;;;27.53;16.13;;;;;;;9.99;94.36;99790.55;713217;1202;114227;-81
2021/04/30 12:12:24;;;;;;;30.90;19.70;;;;;;;10.17;93.56;99806.33;713280;1192;114731;-75
2021/04/30 12:27:45;;;;;;;46.93;21.73;;;;;;;9.90;94.12;99815.81;713232;1193;114369;-76
2021/04/30 12:43:08;;;;;;;39.60;17.05;;;;;;;9.95;96.25;99816.20;713303;1182;113968;-79
2021/04/30 12:58:28;;;;;;;73.05;37.25;;;;;;;10.24;96.73;99830.16;715005;1203;113763;-79
2021/04/30 13:14:07;;;;;;;37.15;17.80;;;;;;;9.96;97.09;99836.21;714214;1206;114754;-73
2021/04/30 13:29:29;;;;;;;36.83;19.93;;;;;;;9.57;99.65;99844.13;712815;1202;114134;-77
2021/04/30 13:44:55;;;;;;;50.00;23.50;;;;;;;9.79;99.79;99848.24;712964;1206;114013;-79
2021/04/30 14:00:18;;;;;;;31.60;16.23;;;;;;;9.91;100.00;99859.39;712958;1181;113803;-75
2021/04/30 14:15:38;;;;;;;19.35;10.95;;;;;;;10.12;100.00;99866.22;713073;1203;115222;-75
2021/04/30 14:30:59;;;;;;;13.65;10.15;;;;;;;10.20;100.00;99873.37;713022;1202;114867;-74
2021/04/30 14:46:20;;;;;;;36.20;15.70;;;;;;;10.09;99.78;99877.81;713084;1182;114470;-74
2021/04/30 15:01:40;;;;;;;24.53;14.80;;;;;;;9.98;100.00;99896.33;713177;1202;114896;-74
2021/04/30 15:17:01;;;;;;;37.30;20.68;;;;;;;9.90;100.00;99904.89;712567;1180;114679;-75
2021/04/30 15:32:32;;;;;;;23.93;14.33;;;;;;;10.01;100.00;99916.19;712978;1202;115363;-74
2021/04/30 15:47:54;;;;;;;25.60;16.03;;;;;;;9.97;100.00;99921.69;712505;1206;115756;-74
2021/04/30 16:03:14;;;;;;;29.90;16.05;;;;;;;9.84;100.00;99936.88;712649;1206;115461;-75
2021/04/30 16:18:35;;;;;;;32.78;19.85;;;;;;;9.41;100.00;99945.95;713315;1206;114102;-74
2021/04/30 16:34:00;;;;;;;33.90;22.00;;;;;;;9.07;100.00;99960.23;712583;1181;114282;-78
2021/04/30 16:49:21;;;;;;;38.60;21.53;;;;;;;8.80;100.00;99984.35;712361;1206;114755;-78
2021/04/30 17:04:44;;;;;;;206.98;75.70;;;;;;;8.83;100.00;99992.77;713039;1202;114208;-77
2021/04/30 17:20:05;;;;;;;47.80;25.70;;;;;;;8.76;100.00;100015.20;713023;1203;115243;-79
2021/04/30 17:35:26;;;;;;;55.80;28.30;;;;;;;8.56;100.00;100044.80;712822;1203;114402;-74
2021/04/30 17:50:47;;;;;;;39.03;22.47;;;;;;;8.53;100.00;100068.59;712909;1179;114066;-78
2021/04/30 18:06:09;;;;;;;36.45;16.85;;;;;;;8.47;100.00;100089.05;712887;1203;114985;-79
2021/04/30 18:21:34;;;;;;;28.67;14.57;;;;;;;8.28;100.00;100110.59;712540;1203;113507;-78
2021/04/30 18:36:57;;;;;;;55.73;32.33;;;;;;;8.33;100.00;100110.23;712347;1180;114033;-76
2021/04/30 18:52:23;;;;;;;69.10;40.85;;;;;;;8.20;100.00;100139.14;712527;1206;114833;-78
2021/04/30 19:07:44;;;;;;;38.60;18.60;;;;;;;8.09;100.00;100152.22;712703;1180;114100;-76
2021/04/30 19:23:12;;;;;;;20.70;11.80;;;;;;;7.99;100.00;100159.97;712482;1205;115816;-77
2021/04/30 19:38:36;;;;;;;33.13;13.83;;;;;;;7.83;100.00;100182.06;712596;1182;114128;-78
2021/04/30 19:53:56;;;;;;;39.40;19.33;;;;;;;7.83;100.00;100182.06;712556;1180;114137;-79
2021/04/30 20:09:16;;;;;;;28.43;12.20;;;;;;;7.78;100.00;100188.61;712363;1180;115532;-79
2021/04/30 20:24:38;;;;;;;64.53;36.43;;;;;;;7.66;100.00;100206.05;712827;1208;113872;-79
2021/04/30 20:39:59;;;;;;;35.67;16.50;;;;;;;7.61;100.00;100221.24;712996;1203;113872;-79
2021/04/30 20:55:20;;;;;;;25.60;12.23;;;;;;;7.49;100.00;100223.83;712856;1203;114634;-77
2021/04/30 21:10:42;;;;;;;30.80;15.30;;;;;;;7.42;100.00;100221.83;712936;1180;114718;-79
2021/04/30 21:26:03;;;;;;;21.63;10.60;;;;;;;7.22;100.00;100224.16;712885;1208;114739;-75
2021/04/30 21:41:23;;;;;;;28.15;14.40;;;;;;;7.07;100.00;100243.55;712903;1204;115257;-76
2021/04/30 21:56:44;;;;;;;27.10;12.50;;;;;;;6.88;100.00;100257.13;713178;1180;114038;-75
2021/04/30 22:12:13;;;;;;;30.83;15.30;;;;;;;6.76;100.00;100264.88;713320;1181;114308;-75
2021/04/30 22:27:33;;;;;;;29.40;15.10;;;;;;;6.62;100.00;100302.36;713853;1204;115483;-75
2021/04/30 22:42:57;;;;;;;27.33;13.98;;;;;;;6.56;100.00;100312.39;713243;1181;113999;-76
2021/04/30 22:58:19;;;;;;;20.75;12.45;;;;;;;6.43;100.00;100310.66;712928;1202;115387;-76
2021/04/30 23:13:39;;;;;;;36.95;17.70;;;;;;;6.32;100.00;100332.27;712098;1206;113922;-76
2021/04/30 23:29:00;;;;;;;27.30;13.40;;;;;;;6.04;100.00;100330.72;712152;1207;114816;-76
2021/04/30 23:44:21;;;;;;;21.90;10.93;;;;;;;5.82;100.00;100313.11;712061;1203;113811;-76
2021/04/30 23:59:41;;;;;;;28.90;13.93;;;;;;;5.53;100.00;100348.86;712125;1203;114808;-75
